Flag for Greece

Past Weather in 36°41'20.1"N, 23°02'30.0"E, Greece — Yesterday and Last 2 Weeks

Currently: 64 °F. Mild. (Weather station: Kalamata Airport, Greece). See more current weather

Past Weather in 36°41'20.1"N, 23°02'30.0"E — Graph

°F

36°41'20.1"N, 23°02'30.0"E Temperature Yesterday

Maximum temperature yesterday: 79 °F (at 12:20 pm)
Minimum temperature yesterday: 57 °F (at 4:50 am)
Average temperature yesterday: 69 °F

High & Low Weather Summary for the Past Weeks

 TemperatureHumidityPressure
High97 °F (Sep 21, 2:50 pm)100% (Sep 20, 2:50 am)30.12 "Hg (Sep 20, 2:50 am)
Low55 °F (Sep 25, 7:20 am)19% (Sep 14, 1:50 pm)29.80 "Hg (Sep 12, 1:20 pm)
Average74 °F64%29.98 "Hg
* Reported Sep 10 9:20 pm — Sep 25 9:20 pm, 36°41'20.1"N, 23°02'30.0"E. Weather by CustomWeather, © 2021

Note: Actual official high and low records may vary slightly from our data, if they occured in-between our weather recording intervals... More about our weather records

36°41'20.1"N, 23°02'30.0"E Weather History for the Previous 24 Hours

Scroll right to see more
 ConditionsComfort  
Time TempWeatherWind HumidityBarometerVisibility
9:20 pm
Sat, Sep 25
66 °FMild.5 mph64%30.12 "HgN/A
8:50 pm64 °FClear.No wind73%30.12 "Hg10 mi
8:20 pm66 °FClear.No wind64%30.12 "Hg10 mi
7:50 pm68 °FClear.No wind64%30.09 "Hg10 mi
7:20 pm72 °FSunny.No wind53%30.09 "Hg10 mi
6:50 pm79 °FSunny.6 mph42%30.09 "Hg10 mi
6:20 pm81 °FSunny.7 mph37%30.09 "Hg10 mi
5:50 pm81 °FSunny.9 mph37%30.09 "Hg10 mi
5:20 pm81 °FSunny.10 mph34%30.09 "Hg10 mi
4:50 pm81 °FSunny.12 mph37%30.09 "Hg10 mi
4:20 pm82 °FSunny.9 mph37%30.09 "Hg10 mi
3:50 pm82 °FSunny.12 mph35%30.09 "Hg10 mi
3:20 pm82 °FSunny.12 mph30%30.09 "Hg10 mi
2:50 pm82 °FSunny.12 mph37%30.09 "Hg10 mi
2:20 pm82 °FSunny.9 mph35%30.09 "Hg10 mi
1:50 pm82 °FSunny.9 mph30%30.12 "Hg10 mi
1:20 pm84 °FSunny.9 mph25%30.12 "Hg10 mi
12:50 pm84 °FSunny.7 mph23%30.09 "Hg10 mi
12:20 pm84 °FSunny.6 mph25%30.12 "Hg10 mi
11:50 am82 °FSunny.No wind28%30.09 "Hg10 mi
11:20 am81 °FSunny.No wind28%30.12 "Hg10 mi
10:50 am77 °FSunny.No wind39%30.09 "Hg10 mi
10:20 am73 °FSunny.No wind41%30.09 "Hg10 mi
9:50 am70 °FSunny.No wind50%30.09 "Hg10 mi
9:20 am68 °FSunny.5 mph53%30.09 "Hg10 mi
8:50 am63 °FSunny.7 mph68%30.09 "Hg10 mi
8:20 am57 °FSunny.6 mph77%30.09 "Hg10 mi
7:50 am55 °FSunny.7 mph82%30.09 "Hg10 mi
7:20 am55 °FClear.7 mph82%30.07 "Hg10 mi
6:50 am59 °FClear.6 mph72%30.07 "Hg10 mi
6:20 am61 °FClear.6 mph68%30.07 "Hg10 mi
5:50 am59 °FClear.5 mph72%30.07 "Hg10 mi
5:20 am57 °FCool.5 mph77%30.07 "HgN/A
4:50 am57 °FCool.5 mph77%30.07 "HgN/A
4:20 am57 °FCool.6 mph77%30.07 "HgN/A
3:50 am57 °FCool.6 mph77%30.07 "HgN/A
3:20 am57 °FCool.6 mph77%30.07 "HgN/A
2:50 am57 °FCool.5 mph82%30.07 "HgN/A
2:20 am57 °FCool.3 mph82%30.07 "HgN/A
1:50 am57 °FCool.3 mph82%30.09 "HgN/A
1:20 am57 °FCool.5 mph82%30.09 "HgN/A
12:50 am59 °FCool.5 mph77%30.09 "HgN/A
12:20 am59 °FCool.5 mph72%30.09 "HgN/A
11:50 pm
Fri, Sep 24
61 °FClear.5 mph68%30.09 "Hg10 mi
11:20 pm61 °FCool.5 mph68%30.09 "HgN/A
10:20 pm64 °FMild.3 mph68%30.09 "HgN/A
Weather by CustomWeather, © 2021

See weather overview